createdAt,value
2022-10-24T00:00:47.260Z,85.70
2022-10-24T00:05:51.167Z,85.90
2022-10-24T00:10:53.441Z,85.90
2022-10-24T00:15:55.757Z,85.90
2022-10-24T00:20:59.527Z,86.00
2022-10-24T00:26:02.056Z,86.00
2022-10-24T00:31:05.413Z,85.80
2022-10-24T00:36:14.028Z,85.70
2022-10-24T00:41:17.620Z,85.60
2022-10-24T00:46:20.892Z,85.50
2022-10-24T00:51:28.248Z,85.50
2022-10-24T00:56:32.452Z,85.40
2022-10-24T01:01:36.280Z,85.40
2022-10-24T01:06:48.272Z,85.20
2022-10-24T01:12:03.732Z,85.20
2022-10-24T01:17:13.807Z,85.20
2022-10-24T01:22:23.542Z,85.20
2022-10-24T01:27:54.494Z,85.10
2022-10-24T01:33:04.679Z,85.00
2022-10-24T01:38:17.183Z,85.00
2022-10-24T01:43:25.003Z,85.00
2022-10-24T01:48:33.472Z,85.10
2022-10-24T01:53:38.114Z,85.20
2022-10-24T01:58:40.383Z,85.30
2022-10-24T02:03:48.336Z,85.50
2022-10-24T02:08:56.126Z,85.70
2022-10-24T02:14:03.393Z,85.90
2022-10-24T02:19:06.795Z,86.00
2022-10-24T02:24:14.608Z,86.00
2022-10-24T02:29:24.691Z,85.90
2022-10-24T02:34:32.819Z,86.10
2022-10-24T02:39:36.664Z,86.30
2022-10-24T02:44:40.524Z,86.30
2022-10-24T02:49:44.356Z,86.30
2022-10-24T02:54:46.692Z,86.40
2022-10-24T02:59:49.122Z,86.40
2022-10-24T03:04:57.981Z,86.40
2022-10-24T03:10:05.968Z,86.40
2022-10-24T03:15:12.704Z,86.40
2022-10-24T03:20:22.869Z,86.30
2022-10-24T03:25:32.201Z,86.30
2022-10-24T03:30:37.516Z,86.10
2022-10-24T03:35:41.711Z,86.00
2022-10-24T03:45:50.852Z,85.70
2022-10-24T03:50:54.584Z,85.60
2022-10-24T03:55:56.893Z,85.30
2022-10-24T04:00:59.271Z,86.20
2022-10-24T04:06:03.098Z,85.30
2022-10-24T04:11:06.438Z,85.20
2022-10-24T04:16:09.225Z,85.40
2022-10-24T04:21:15.867Z,85.40
2022-10-24T04:26:20.330Z,85.40
2022-10-24T04:31:23.758Z,85.30
2022-10-24T04:36:27.830Z,85.20
2022-10-24T04:41:30.232Z,85.00
2022-10-24T04:46:32.683Z,84.80
2022-10-24T04:51:36.518Z,84.50
2022-10-24T04:56:38.898Z,84.20
2022-10-24T05:01:41.338Z,83.90
2022-10-24T05:06:45.333Z,83.70
2022-10-24T05:11:47.707Z,83.50
2022-10-24T05:16:50.245Z,83.50
2022-10-24T05:21:54.007Z,83.20
2022-10-24T05:26:56.422Z,83.10
2022-10-24T05:31:58.750Z,83.30
2022-10-24T05:37:02.591Z,83.10
2022-10-24T05:42:05.243Z,82.80
2022-10-24T05:47:07.690Z,82.80
2022-10-24T05:52:11.585Z,82.70
2022-10-24T05:57:14.010Z,82.50
2022-10-24T06:02:19.132Z,82.50
2022-10-24T06:07:23.448Z,82.20
2022-10-24T06:12:25.878Z,82.10
2022-10-24T06:17:28.297Z,82.10
2022-10-24T06:22:32.052Z,82.00
2022-10-24T06:27:35.835Z,82.00
2022-10-24T06:32:42.145Z,82.00
2022-10-24T06:37:48.677Z,82.00
2022-10-24T06:42:52.073Z,81.70
2022-10-24T06:47:54.807Z,81.80
2022-10-24T06:52:58.877Z,81.80
2022-10-24T06:58:01.303Z,81.90
2022-10-24T07:03:03.811Z,81.90
2022-10-24T07:08:07.858Z,81.90
2022-10-24T07:13:10.186Z,81.80
2022-10-24T07:18:14.876Z,81.70
2022-10-24T07:23:19.184Z,81.40
2022-10-24T07:28:21.667Z,81.40
2022-10-24T07:33:24.088Z,82.30
2022-10-24T07:38:28.162Z,81.10
2022-10-24T07:43:31.260Z,81.30
2022-10-24T07:48:33.985Z,81.30
2022-10-24T07:53:38.554Z,82.00
2022-10-24T07:58:42.002Z,81.50
2022-10-24T08:03:44.864Z,81.70
2022-10-24T08:08:48.888Z,81.30
2022-10-24T08:13:52.601Z,80.30
2022-10-24T08:18:57.605Z,77.90
2022-10-24T08:24:01.460Z,74.80
2022-10-24T08:29:03.988Z,74.10
2022-10-24T08:34:06.293Z,74.20
2022-10-24T08:39:10.048Z,75.20
2022-10-24T08:44:21.037Z,75.40
2022-10-24T08:49:35.074Z,73.30
2022-10-24T08:54:42.964Z,71.60
2022-10-24T08:59:45.491Z,70.40
2022-10-24T09:04:52.843Z,69.60
2022-10-24T09:10:13.128Z,68.70
2022-10-24T09:15:27.782Z,67.80
2022-10-24T09:20:32.348Z,67.90
2022-10-24T09:25:38.514Z,68.00
2022-10-24T09:30:41.947Z,68.40
2022-10-24T09:35:45.068Z,68.90
2022-10-24T09:40:52.682Z,69.70
2022-10-24T09:46:03.796Z,68.70
2022-10-24T09:51:08.432Z,69.00
2022-10-24T09:56:14.186Z,69.40
2022-10-24T10:01:21.121Z,68.90
2022-10-24T10:06:23.890Z,69.10
2022-10-24T10:11:30.070Z,69.00
2022-10-24T10:16:34.439Z,69.10
2022-10-24T10:21:52.909Z,69.30
2022-10-24T10:26:57.278Z,69.40
2022-10-24T10:32:07.936Z,68.80
2022-10-24T10:37:25.801Z,68.80
2022-10-24T10:42:35.865Z,68.40
2022-10-24T10:47:48.675Z,69.70
2022-10-24T10:52:51.582Z,70.10
2022-10-24T10:58:06.953Z,69.40
2022-10-24T11:03:26.844Z,68.90
2022-10-24T11:08:45.769Z,67.50
2022-10-24T11:13:55.852Z,66.80
2022-10-24T11:19:02.792Z,66.30
2022-10-24T11:24:13.827Z,67.00
2022-10-24T11:29:27.395Z,68.10
2022-10-24T11:34:36.137Z,68.90
2022-10-24T11:39:46.390Z,66.60
2022-10-24T11:44:55.900Z,65.70
2022-10-24T11:50:06.703Z,63.70
2022-10-24T11:55:16.783Z,62.20
2022-10-24T12:00:24.093Z,63.40
2022-10-24T12:05:47.704Z,61.30
2022-10-24T12:11:11.797Z,59.20
2022-10-24T12:16:25.042Z,60.10
2022-10-24T12:21:41.870Z,61.50
2022-10-24T12:26:55.873Z,60.70
2022-10-24T12:32:20.620Z,60.70
2022-10-24T12:37:37.539Z,59.30
2022-10-24T12:43:12.636Z,60.20
2022-10-24T12:48:31.260Z,61.20
2022-10-24T12:53:38.432Z,61.00
2022-10-24T12:58:42.536Z,61.60
2022-10-24T13:04:19.547Z,61.90
2022-10-24T13:09:35.238Z,62.90
2022-10-24T13:15:03.990Z,63.00
2022-10-24T13:20:17.142Z,63.40
2022-10-24T13:25:31.507Z,63.40
2022-10-24T13:30:33.922Z,63.10
2022-10-24T13:35:36.648Z,63.90
2022-10-24T13:40:45.215Z,63.30
2022-10-24T13:45:56.493Z,63.20
2022-10-24T13:51:07.119Z,62.70
2022-10-24T13:56:12.849Z,62.90
2022-10-24T14:01:20.117Z,62.90
2022-10-24T14:06:26.661Z,63.00
2022-10-24T14:11:32.258Z,63.00
2022-10-24T14:16:35.589Z,62.80
2022-10-24T14:21:42.966Z,63.40
2022-10-24T14:26:51.163Z,62.80
2022-10-24T14:31:58.687Z,62.10
2022-10-24T14:37:04.634Z,62.20
2022-10-24T14:42:16.548Z,63.10
2022-10-24T14:47:27.770Z,63.30
2022-10-24T14:52:37.175Z,64.00
2022-10-24T14:57:48.328Z,63.00
2022-10-24T15:02:54.052Z,63.50
2022-10-24T15:08:28.167Z,64.20
2022-10-24T15:13:33.459Z,64.30
2022-10-24T15:18:53.840Z,65.30
2022-10-24T15:24:25.815Z,65.60
2022-10-24T15:29:41.161Z,65.80
2022-10-24T15:35:14.849Z,66.30
2022-10-24T15:40:21.203Z,66.90
2022-10-24T15:45:28.708Z,67.20
2022-10-24T15:50:33.028Z,67.60
2022-10-24T15:55:38.210Z,68.00
2022-10-24T16:00:46.891Z,68.20
2022-10-24T16:05:51.849Z,68.90
2022-10-24T16:10:58.334Z,69.30
2022-10-24T16:16:07.096Z,69.80
2022-10-24T16:21:38.635Z,70.20
2022-10-24T16:26:59.190Z,70.60
2022-10-24T16:32:02.934Z,71.10
2022-10-24T16:37:05.670Z,71.10
2022-10-24T16:42:07.947Z,71.50
2022-10-24T16:47:11.775Z,71.80
2022-10-24T16:52:47.505Z,72.30
2022-10-24T17:03:16.690Z,73.20
2022-10-24T17:08:19.449Z,73.50
2022-10-24T17:13:39.370Z,73.40
2022-10-24T17:19:12.225Z,73.60
2022-10-24T17:24:18.539Z,73.80
2022-10-24T17:29:26.053Z,74.60
2022-10-24T17:34:30.143Z,74.70
2022-10-24T17:39:40.344Z,74.70
2022-10-24T17:44:59.729Z,74.90
2022-10-24T17:50:03.764Z,75.10
2022-10-24T17:55:08.915Z,75.30
2022-10-24T18:00:14.646Z,75.30
2022-10-24T18:05:20.570Z,75.70
2022-10-24T18:10:22.776Z,75.90
2022-10-24T18:15:25.072Z,76.00
2022-10-24T18:20:29.201Z,76.50
2022-10-24T18:25:31.467Z,76.90
2022-10-24T18:30:34.075Z,76.90
2022-10-24T18:35:38.017Z,76.80
2022-10-24T18:40:41.144Z,77.00
2022-10-24T18:45:44.183Z,76.80
2022-10-24T18:50:50.762Z,77.30
2022-10-24T18:55:53.318Z,77.70
2022-10-24T19:00:59.121Z,77.60
2022-10-24T19:06:14.990Z,77.90
2022-10-24T19:11:17.664Z,78.70
2022-10-24T19:16:22.238Z,78.20
2022-10-24T19:21:25.996Z,78.40
2022-10-24T19:26:28.369Z,78.70
2022-10-24T19:31:30.655Z,78.80
2022-10-24T19:36:34.489Z,78.90
2022-10-24T19:41:37.130Z,79.20
2022-10-24T19:46:40.500Z,79.20
2022-10-24T19:51:44.238Z,79.50
2022-10-24T19:56:46.418Z,79.80
2022-10-24T20:01:49.053Z,79.70
2022-10-24T20:06:54.626Z,79.70
2022-10-24T20:11:59.444Z,79.80
2022-10-24T20:17:02.640Z,79.80
2022-10-24T20:22:06.621Z,79.90
2022-10-24T20:27:08.913Z,80.30
2022-10-24T20:32:11.209Z,80.20
2022-10-24T20:37:15.255Z,80.40
2022-10-24T20:42:17.587Z,80.70
2022-10-24T20:47:19.995Z,80.70
2022-10-24T20:52:23.830Z,81.10
2022-10-24T20:57:26.125Z,81.10
2022-10-24T21:02:29.652Z,80.90
2022-10-24T21:07:33.639Z,81.10
2022-10-24T21:12:36.071Z,81.20
2022-10-24T21:17:39.759Z,81.30
2022-10-24T21:22:43.472Z,81.50
2022-10-24T21:27:45.954Z,81.60
2022-10-24T21:32:48.663Z,81.60
2022-10-24T21:37:52.452Z,81.70
2022-10-24T21:42:54.725Z,82.00
2022-10-24T21:47:57.166Z,82.00
2022-10-24T21:53:01.016Z,82.10
2022-10-24T21:58:03.426Z,82.20
2022-10-24T22:03:05.688Z,82.00
2022-10-24T22:08:09.380Z,82.40
2022-10-24T22:13:11.771Z,82.30
2022-10-24T22:18:14.094Z,82.30
2022-10-24T22:23:17.995Z,82.20
2022-10-24T22:28:21.359Z,82.50
2022-10-24T22:33:32.333Z,82.60
2022-10-24T22:38:36.807Z,82.80
2022-10-24T22:43:39.654Z,82.70
2022-10-24T22:48:47.212Z,82.50
2022-10-24T22:53:51.983Z,82.70
2022-10-24T22:58:54.892Z,82.40
2022-10-24T23:04:15.543Z,82.40
2022-10-24T23:09:19.372Z,83.10
2022-10-24T23:14:22.134Z,82.60
2022-10-24T23:19:27.564Z,82.60
2022-10-24T23:24:31.927Z,82.80
2022-10-24T23:29:36.103Z,83.10
2022-10-24T23:34:39.023Z,83.10
2022-10-24T23:39:43.440Z,83.10
2022-10-24T23:44:46.244Z,83.30
2022-10-24T23:49:56.561Z,83.30
2022-10-24T23:55:00.891Z,83.70
